Aviation Digital Data Service (ADDS)

Output produced by METARs form (0709 UTC 23 February 2017)
found at http://aviationweather.gov/adds/metars/
 
KEWR 230532Z 2306/2412 VRB04KT P6SM BKN250 
     FM230800 VRB03KT 5SM BR SCT005 BKN250 
     FM231000 VRB02KT 2SM BR BKN005 
     FM231500 22006KT 5SM BR BKN010 BKN025 
     FM231800 20007KT P6SM BKN035 
     FM240100 VRB03KT P6SM OVC035 
     FM240600 VRB03KT 4SM BR FEW005 OVC020 
     FM240900 VRB03KT 1SM BR BKN005